sensor_id;sensor_type;location;lat;lon;timestamp;P1;durP1;ratioP1;P2;durP2;ratioP2
12770;SDS011;6449;47.666;9.160;2023-09-12T00:00:06;8.95;;;8.05;;
12770;SDS011;6449;47.666;9.160;2023-09-12T00:05:01;8.57;;;7.75;;
12770;SDS011;6449;47.666;9.160;2023-09-12T00:09:55;9.57;;;8.35;;
12770;SDS011;6449;47.666;9.160;2023-09-12T00:14:48;12.32;;;9.95;;
12770;SDS011;6449;47.666;9.160;2023-09-12T00:19:43;11.65;;;9.60;;
12770;SDS011;6449;47.666;9.160;2023-09-12T00:24:37;12.93;;;10.40;;
12770;SDS011;6449;47.666;9.160;2023-09-12T00:29:30;10.10;;;9.07;;
12770;SDS011;6449;47.666;9.160;2023-09-12T00:34:23;12.88;;;9.35;;
12770;SDS011;6449;47.666;9.160;2023-09-12T00:39:18;9.18;;;8.23;;
12770;SDS011;6449;47.666;9.160;2023-09-12T00:44:12;9.85;;;8.85;;
12770;SDS011;6449;47.666;9.160;2023-09-12T00:49:05;10.23;;;9.05;;
12770;SDS011;6449;47.666;9.160;2023-09-12T00:54:00;9.98;;;8.57;;
12770;SDS011;6449;47.666;9.160;2023-09-12T00:58:56;9.45;;;8.00;;
12770;SDS011;6449;47.666;9.160;2023-09-12T01:03:50;10.50;;;8.48;;
12770;SDS011;6449;47.666;9.160;2023-09-12T01:08:44;8.82;;;7.93;;
12770;SDS011;6449;47.666;9.160;2023-09-12T01:13:37;10.73;;;8.07;;
12770;SDS011;6449;47.666;9.160;2023-09-12T01:18:32;10.32;;;7.95;;
12770;SDS011;6449;47.666;9.160;2023-09-12T01:23:30;9.68;;;8.30;;
12770;SDS011;6449;47.666;9.160;2023-09-12T01:28:38;8.73;;;7.80;;
12770;SDS011;6449;47.666;9.160;2023-09-12T01:33:36;8.27;;;7.45;;
12770;SDS011;6449;47.666;9.160;2023-09-12T01:38:29;8.82;;;7.93;;
12770;SDS011;6449;47.666;9.160;2023-09-12T01:43:23;9.13;;;7.65;;
12770;SDS011;6449;47.666;9.160;2023-09-12T01:48:20;9.23;;;7.95;;
12770;SDS011;6449;47.666;9.160;2023-09-12T01:53:18;9.32;;;7.47;;
12770;SDS011;6449;47.666;9.160;2023-09-12T01:58:12;8.30;;;7.50;;
12770;SDS011;6449;47.666;9.160;2023-09-12T02:03:06;7.93;;;7.18;;
12770;SDS011;6449;47.666;9.160;2023-09-12T02:08:01;12.45;;;7.88;;
12770;SDS011;6449;47.666;9.160;2023-09-12T02:12:56;9.43;;;8.20;;
12770;SDS011;6449;47.666;9.160;2023-09-12T02:17:49;8.60;;;7.63;;
12770;SDS011;6449;47.666;9.160;2023-09-12T02:22:44;8.80;;;7.72;;
12770;SDS011;6449;47.666;9.160;2023-09-12T02:27:39;9.85;;;7.68;;
12770;SDS011;6449;47.666;9.160;2023-09-12T02:32:32;8.85;;;7.95;;
12770;SDS011;6449;47.666;9.160;2023-09-12T02:37:26;9.30;;;8.30;;
12770;SDS011;6449;47.666;9.160;2023-09-12T02:42:19;8.43;;;7.53;;
12770;SDS011;6449;47.666;9.160;2023-09-12T02:47:14;10.18;;;8.20;;
12770;SDS011;6449;47.666;9.160;2023-09-12T02:52:07;9.68;;;8.07;;
12770;SDS011;6449;47.666;9.160;2023-09-12T02:57:01;9.63;;;8.20;;
12770;SDS011;6449;47.666;9.160;2023-09-12T03:01:54;9.18;;;8.10;;
12770;SDS011;6449;47.666;9.160;2023-09-12T03:06:49;12.18;;;9.35;;
12770;SDS011;6449;47.666;9.160;2023-09-12T03:11:42;11.55;;;9.48;;
12770;SDS011;6449;47.666;9.160;2023-09-12T03:16:35;13.30;;;9.05;;
12770;SDS011;6449;47.666;9.160;2023-09-12T03:21:30;9.43;;;8.38;;
12770;SDS011;6449;47.666;9.160;2023-09-12T03:26:25;13.35;;;8.90;;
12770;SDS011;6449;47.666;9.160;2023-09-12T03:31:19;10.02;;;8.15;;
12770;SDS011;6449;47.666;9.160;2023-09-12T03:36:13;10.45;;;9.35;;
12770;SDS011;6449;47.666;9.160;2023-09-12T03:41:06;10.23;;;8.88;;
12770;SDS011;6449;47.666;9.160;2023-09-12T03:46:01;9.55;;;8.52;;
12770;SDS011;6449;47.666;9.160;2023-09-12T03:50:55;10.10;;;8.57;;
12770;SDS011;6449;47.666;9.160;2023-09-12T03:55:48;10.88;;;9.25;;
12770;SDS011;6449;47.666;9.160;2023-09-12T04:00:42;13.20;;;9.13;;
12770;SDS011;6449;47.666;9.160;2023-09-12T04:05:37;10.25;;;8.63;;
12770;SDS011;6449;47.666;9.160;2023-09-12T04:10:30;12.40;;;9.73;;
12770;SDS011;6449;47.666;9.160;2023-09-12T04:15:24;10.23;;;9.13;;
12770;SDS011;6449;47.666;9.160;2023-09-12T04:20:18;11.70;;;9.63;;
12770;SDS011;6449;47.666;9.160;2023-09-12T04:25:12;10.10;;;9.02;;
12770;SDS011;6449;47.666;9.160;2023-09-12T04:30:07;13.48;;;9.20;;
12770;SDS011;6449;47.666;9.160;2023-09-12T04:35:01;10.20;;;8.80;;
12770;SDS011;6449;47.666;9.160;2023-09-12T04:39:55;10.63;;;9.20;;
12770;SDS011;6449;47.666;9.160;2023-09-12T04:44:50;9.77;;;8.52;;
12770;SDS011;6449;47.666;9.160;2023-09-12T04:49:44;9.50;;;8.45;;
12770;SDS011;6449;47.666;9.160;2023-09-12T04:54:37;12.13;;;9.82;;
12770;SDS011;6449;47.666;9.160;2023-09-12T04:59:31;11.32;;;9.80;;
12770;SDS011;6449;47.666;9.160;2023-09-12T05:04:25;10.98;;;9.73;;
12770;SDS011;6449;47.666;9.160;2023-09-12T05:09:19;9.38;;;8.40;;
12770;SDS011;6449;47.666;9.160;2023-09-12T05:14:14;17.10;;;11.77;;
12770;SDS011;6449;47.666;9.160;2023-09-12T05:19:07;13.98;;;10.52;;
12770;SDS011;6449;47.666;9.160;2023-09-12T05:24:02;13.13;;;9.90;;
12770;SDS011;6449;47.666;9.160;2023-09-12T05:28:57;10.07;;;8.85;;
12770;SDS011;6449;47.666;9.160;2023-09-12T05:33:50;11.35;;;9.77;;
12770;SDS011;6449;47.666;9.160;2023-09-12T05:38:44;11.57;;;9.10;;
12770;SDS011;6449;47.666;9.160;2023-09-12T05:43:39;16.10;;;10.60;;
12770;SDS011;6449;47.666;9.160;2023-09-12T05:48:37;11.45;;;9.02;;
12770;SDS011;6449;47.666;9.160;2023-09-12T05:53:31;11.60;;;9.73;;
12770;SDS011;6449;47.666;9.160;2023-09-12T05:58:24;11.45;;;10.18;;
12770;SDS011;6449;47.666;9.160;2023-09-12T06:03:19;10.45;;;9.35;;
12770;SDS011;6449;47.666;9.160;2023-09-12T06:08:14;11.48;;;10.13;;
12770;SDS011;6449;47.666;9.160;2023-09-12T06:13:07;11.00;;;9.35;;
12770;SDS011;6449;47.666;9.160;2023-09-12T06:18:03;14.02;;;11.48;;
12770;SDS011;6449;47.666;9.160;2023-09-12T06:22:58;12.57;;;10.18;;
12770;SDS011;6449;47.666;9.160;2023-09-12T06:27:51;11.15;;;9.88;;
12770;SDS011;6449;47.666;9.160;2023-09-12T06:32:45;12.20;;;10.50;;
12770;SDS011;6449;47.666;9.160;2023-09-12T06:37:38;13.15;;;10.93;;
12770;SDS011;6449;47.666;9.160;2023-09-12T06:42:33;14.30;;;11.65;;
12770;SDS011;6449;47.666;9.160;2023-09-12T06:47:26;15.05;;;11.82;;
12770;SDS011;6449;47.666;9.160;2023-09-12T06:52:20;18.02;;;13.38;;
12770;SDS011;6449;47.666;9.160;2023-09-12T06:57:13;16.65;;;12.50;;
12770;SDS011;6449;47.666;9.160;2023-09-12T07:02:08;15.63;;;12.98;;
12770;SDS011;6449;47.666;9.160;2023-09-12T07:07:04;17.73;;;13.90;;
12770;SDS011;6449;47.666;9.160;2023-09-12T07:11:57;16.17;;;13.07;;
12770;SDS011;6449;47.666;9.160;2023-09-12T07:16:50;16.90;;;11.98;;
12770;SDS011;6449;47.666;9.160;2023-09-12T07:21:45;13.48;;;11.95;;
12770;SDS011;6449;47.666;9.160;2023-09-12T07:26:39;13.65;;;11.65;;
12770;SDS011;6449;47.666;9.160;2023-09-12T07:31:32;17.08;;;14.35;;
12770;SDS011;6449;47.666;9.160;2023-09-12T07:36:25;18.10;;;14.10;;
12770;SDS011;6449;47.666;9.160;2023-09-12T07:41:20;18.33;;;15.20;;
12770;SDS011;6449;47.666;9.160;2023-09-12T07:46:14;16.75;;;13.40;;
12770;SDS011;6449;47.666;9.160;2023-09-12T07:51:14;16.67;;;13.60;;
12770;SDS011;6449;47.666;9.160;2023-09-12T07:56:09;17.17;;;11.70;;
12770;SDS011;6449;47.666;9.160;2023-09-12T08:01:08;14.75;;;13.18;;
12770;SDS011;6449;47.666;9.160;2023-09-12T08:06:02;12.85;;;11.45;;
12770;SDS011;6449;47.666;9.160;2023-09-12T08:10:56;12.52;;;10.68;;
12770;SDS011;6449;47.666;9.160;2023-09-12T08:15:50;13.73;;;11.43;;
12770;SDS011;6449;47.666;9.160;2023-09-12T08:20:45;17.17;;;12.15;;
12770;SDS011;6449;47.666;9.160;2023-09-12T08:25:39;14.13;;;12.05;;
12770;SDS011;6449;47.666;9.160;2023-09-12T08:30:32;11.45;;;9.73;;
12770;SDS011;6449;47.666;9.160;2023-09-12T08:35:26;16.45;;;12.13;;
12770;SDS011;6449;47.666;9.160;2023-09-12T08:40:20;12.10;;;10.45;;
12770;SDS011;6449;47.666;9.160;2023-09-12T08:45:15;12.57;;;9.75;;
12770;SDS011;6449;47.666;9.160;2023-09-12T08:50:11;11.63;;;9.27;;
12770;SDS011;6449;47.666;9.160;2023-09-12T08:55:08;12.35;;;10.68;;
12770;SDS011;6449;47.666;9.160;2023-09-12T09:00:04;12.45;;;10.38;;
12770;SDS011;6449;47.666;9.160;2023-09-12T09:05:01;11.18;;;10.07;;
12770;SDS011;6449;47.666;9.160;2023-09-12T09:09:57;9.90;;;8.82;;
12770;SDS011;6449;47.666;9.160;2023-09-12T09:14:50;12.40;;;10.73;;
12770;SDS011;6449;47.666;9.160;2023-09-12T09:19:45;12.20;;;10.77;;
12770;SDS011;6449;47.666;9.160;2023-09-12T09:24:39;11.48;;;9.35;;
12770;SDS011;6449;47.666;9.160;2023-09-12T09:29:32;11.18;;;9.88;;
12770;SDS011;6449;47.666;9.160;2023-09-12T09:34:39;10.48;;;8.55;;
12770;SDS011;6449;47.666;9.160;2023-09-12T09:39:35;10.75;;;8.63;;
12770;SDS011;6449;47.666;9.160;2023-09-12T09:44:28;10.23;;;9.02;;
12770;SDS011;6449;47.666;9.160;2023-09-12T09:49:22;12.68;;;10.73;;
12770;SDS011;6449;47.666;9.160;2023-09-12T09:54:15;11.35;;;8.93;;
12770;SDS011;6449;47.666;9.160;2023-09-12T09:59:11;10.50;;;9.40;;
12770;SDS011;6449;47.666;9.160;2023-09-12T10:04:08;10.63;;;9.52;;
12770;SDS011;6449;47.666;9.160;2023-09-12T10:09:03;10.13;;;9.07;;
12770;SDS011;6449;47.666;9.160;2023-09-12T10:14:03;10.75;;;9.20;;
12770;SDS011;6449;47.666;9.160;2023-09-12T10:19:02;10.73;;;9.63;;
12770;SDS011;6449;47.666;9.160;2023-09-12T10:24:03;10.02;;;9.02;;
12770;SDS011;6449;47.666;9.160;2023-09-12T10:28:59;10.30;;;9.20;;
12770;SDS011;6449;47.666;9.160;2023-09-12T10:33:55;12.75;;;9.00;;
12770;SDS011;6449;47.666;9.160;2023-09-12T10:38:53;10.38;;;8.68;;
12770;SDS011;6449;47.666;9.160;2023-09-12T10:43:51;9.48;;;8.48;;
12770;SDS011;6449;47.666;9.160;2023-09-12T10:48:48;9.73;;;8.63;;
12770;SDS011;6449;47.666;9.160;2023-09-12T10:53:47;11.02;;;9.07;;
12770;SDS011;6449;47.666;9.160;2023-09-12T11:09:27;8.95;;;8.05;;
12770;SDS011;6449;47.666;9.160;2023-09-12T11:14:21;10.18;;;8.68;;
12770;SDS011;6449;47.666;9.160;2023-09-12T11:19:15;9.07;;;8.18;;
12770;SDS011;6449;47.666;9.160;2023-09-12T11:24:11;8.98;;;8.07;;
12770;SDS011;6449;47.666;9.160;2023-09-12T11:29:12;10.95;;;8.13;;
12770;SDS011;6449;47.666;9.160;2023-09-12T11:34:07;11.52;;;8.55;;
12770;SDS011;6449;47.666;9.160;2023-09-12T11:39:03;10.00;;;8.65;;
12770;SDS011;6449;47.666;9.160;2023-09-12T11:44:18;9.82;;;8.82;;
12770;SDS011;6449;47.666;9.160;2023-09-12T11:49:13;10.20;;;9.10;;
12770;SDS011;6449;47.666;9.160;2023-09-12T11:54:07;15.80;;;10.38;;
12770;SDS011;6449;47.666;9.160;2023-09-12T11:59:01;10.50;;;9.02;;
12770;SDS011;6449;47.666;9.160;2023-09-12T12:03:55;11.30;;;9.13;;
12770;SDS011;6449;47.666;9.160;2023-09-12T12:08:50;10.38;;;8.35;;
12770;SDS011;6449;47.666;9.160;2023-09-12T12:13:46;10.25;;;8.65;;
12770;SDS011;6449;47.666;9.160;2023-09-12T12:18:41;11.27;;;8.63;;
12770;SDS011;6449;47.666;9.160;2023-09-12T12:23:36;9.50;;;8.60;;
12770;SDS011;6449;47.666;9.160;2023-09-12T12:28:30;9.18;;;8.27;;
12770;SDS011;6449;47.666;9.160;2023-09-12T12:33:24;10.27;;;9.07;;
12770;SDS011;6449;47.666;9.160;2023-09-12T12:38:39;10.98;;;7.95;;
12770;SDS011;6449;47.666;9.160;2023-09-12T12:43:46;9.70;;;8.68;;
12770;SDS011;6449;47.666;9.160;2023-09-12T12:48:43;9.45;;;8.07;;
12770;SDS011;6449;47.666;9.160;2023-09-12T12:53:39;9.80;;;8.80;;
12770;SDS011;6449;47.666;9.160;2023-09-12T12:58:37;9.18;;;8.25;;
12770;SDS011;6449;47.666;9.160;2023-09-12T13:03:30;10.73;;;8.90;;
12770;SDS011;6449;47.666;9.160;2023-09-12T13:08:24;8.75;;;7.85;;
12770;SDS011;6449;47.666;9.160;2023-09-12T13:13:19;8.45;;;7.55;;
12770;SDS011;6449;47.666;9.160;2023-09-12T13:18:14;11.18;;;7.75;;
12770;SDS011;6449;47.666;9.160;2023-09-12T13:23:07;8.52;;;7.63;;
12770;SDS011;6449;47.666;9.160;2023-09-12T13:28:00;8.63;;;7.72;;
12770;SDS011;6449;47.666;9.160;2023-09-12T13:32:55;9.23;;;8.20;;
12770;SDS011;6449;47.666;9.160;2023-09-12T13:37:48;9.02;;;8.13;;
12770;SDS011;6449;47.666;9.160;2023-09-12T13:42:42;7.38;;;6.60;;
12770;SDS011;6449;47.666;9.160;2023-09-12T13:47:37;9.10;;;8.20;;
12770;SDS011;6449;47.666;9.160;2023-09-12T13:52:31;8.70;;;7.85;;
12770;SDS011;6449;47.666;9.160;2023-09-12T13:57:25;8.70;;;7.43;;
12770;SDS011;6449;47.666;9.160;2023-09-12T14:02:18;8.32;;;7.53;;
12770;SDS011;6449;47.666;9.160;2023-09-12T14:07:12;8.50;;;7.60;;
12770;SDS011;6449;47.666;9.160;2023-09-12T14:12:08;8.27;;;7.47;;
12770;SDS011;6449;47.666;9.160;2023-09-12T14:17:16;8.60;;;7.70;;
12770;SDS011;6449;47.666;9.160;2023-09-12T14:22:11;9.20;;;8.05;;
12770;SDS011;6449;47.666;9.160;2023-09-12T14:27:05;9.77;;;7.88;;
12770;SDS011;6449;47.666;9.160;2023-09-12T14:32:16;9.25;;;8.00;;
12770;SDS011;6449;47.666;9.160;2023-09-12T14:37:09;10.02;;;7.90;;
12770;SDS011;6449;47.666;9.160;2023-09-12T14:42:03;10.57;;;8.43;;
12770;SDS011;6449;47.666;9.160;2023-09-12T14:47:01;9.43;;;7.82;;
12770;SDS011;6449;47.666;9.160;2023-09-12T14:51:55;10.55;;;7.95;;
12770;SDS011;6449;47.666;9.160;2023-09-12T14:56:48;5.97;;;4.90;;
12770;SDS011;6449;47.666;9.160;2023-09-12T15:01:42;6.90;;;3.03;;
12770;SDS011;6449;47.666;9.160;2023-09-12T15:06:37;5.40;;;1.85;;
12770;SDS011;6449;47.666;9.160;2023-09-12T15:11:31;2.65;;;1.70;;
12770;SDS011;6449;47.666;9.160;2023-09-12T15:16:24;2.88;;;1.40;;
12770;SDS011;6449;47.666;9.160;2023-09-12T15:21:18;2.40;;;1.73;;
12770;SDS011;6449;47.666;9.160;2023-09-12T15:26:13;1.40;;;1.23;;
12770;SDS011;6449;47.666;9.160;2023-09-12T15:31:07;1.98;;;1.13;;
12770;SDS011;6449;47.666;9.160;2023-09-12T15:36:01;1.98;;;1.42;;
12770;SDS011;6449;47.666;9.160;2023-09-12T15:40:54;2.28;;;1.20;;
12770;SDS011;6449;47.666;9.160;2023-09-12T15:45:51;2.55;;;1.52;;
12770;SDS011;6449;47.666;9.160;2023-09-12T15:50:45;1.58;;;1.17;;
12770;SDS011;6449;47.666;9.160;2023-09-12T15:55:38;2.10;;;0.95;;
12770;SDS011;6449;47.666;9.160;2023-09-12T16:00:32;3.17;;;1.10;;
12770;SDS011;6449;47.666;9.160;2023-09-12T16:05:26;2.08;;;1.20;;
12770;SDS011;6449;47.666;9.160;2023-09-12T16:10:20;1.10;;;1.00;;
12770;SDS011;6449;47.666;9.160;2023-09-12T16:15:13;3.60;;;1.40;;
12770;SDS011;6449;47.666;9.160;2023-09-12T16:20:07;2.67;;;1.30;;
12770;SDS011;6449;47.666;9.160;2023-09-12T16:25:06;2.70;;;1.08;;
12770;SDS011;6449;47.666;9.160;2023-09-12T16:30:01;3.67;;;1.20;;
12770;SDS011;6449;47.666;9.160;2023-09-12T16:34:59;1.27;;;0.93;;
12770;SDS011;6449;47.666;9.160;2023-09-12T16:39:53;1.30;;;1.20;;
12770;SDS011;6449;47.666;9.160;2023-09-12T16:44:48;3.70;;;1.15;;
12770;SDS011;6449;47.666;9.160;2023-09-12T16:49:41;5.20;;;1.50;;
12770;SDS011;6449;47.666;9.160;2023-09-12T16:54:35;2.08;;;1.30;;
12770;SDS011;6449;47.666;9.160;2023-09-12T16:59:28;1.65;;;1.55;;
12770;SDS011;6449;47.666;9.160;2023-09-12T17:04:23;2.63;;;1.48;;
12770;SDS011;6449;47.666;9.160;2023-09-12T17:09:17;2.65;;;1.38;;
12770;SDS011;6449;47.666;9.160;2023-09-12T17:14:10;2.08;;;1.50;;
12770;SDS011;6449;47.666;9.160;2023-09-12T17:19:05;2.55;;;1.50;;
12770;SDS011;6449;47.666;9.160;2023-09-12T17:23:59;1.60;;;1.50;;
12770;SDS011;6449;47.666;9.160;2023-09-12T17:28:53;2.65;;;1.65;;
12770;SDS011;6449;47.666;9.160;2023-09-12T17:33:46;2.58;;;1.60;;
12770;SDS011;6449;47.666;9.160;2023-09-12T17:38:40;5.05;;;1.88;;
12770;SDS011;6449;47.666;9.160;2023-09-12T17:43:35;3.17;;;1.70;;
12770;SDS011;6449;47.666;9.160;2023-09-12T17:48:28;4.45;;;2.05;;
12770;SDS011;6449;47.666;9.160;2023-09-12T17:53:26;3.28;;;2.03;;
12770;SDS011;6449;47.666;9.160;2023-09-12T17:58:19;5.50;;;2.45;;
12770;SDS011;6449;47.666;9.160;2023-09-12T18:03:14;6.10;;;2.22;;
12770;SDS011;6449;47.666;9.160;2023-09-12T18:08:07;5.97;;;2.75;;
12770;SDS011;6449;47.666;9.160;2023-09-12T18:13:01;3.25;;;2.50;;
12770;SDS011;6449;47.666;9.160;2023-09-12T18:17:54;5.93;;;2.10;;
12770;SDS011;6449;47.666;9.160;2023-09-12T18:22:49;2.83;;;2.22;;
12770;SDS011;6449;47.666;9.160;2023-09-12T18:27:46;4.15;;;2.10;;
12770;SDS011;6449;47.666;9.160;2023-09-12T18:32:39;4.00;;;1.88;;
12770;SDS011;6449;47.666;9.160;2023-09-12T18:37:33;1.55;;;1.45;;
12770;SDS011;6449;47.666;9.160;2023-09-12T18:42:28;4.70;;;1.88;;
12770;SDS011;6449;47.666;9.160;2023-09-12T18:47:22;3.97;;;1.63;;
12770;SDS011;6449;47.666;9.160;2023-09-12T18:52:15;2.45;;;1.98;;
12770;SDS011;6449;47.666;9.160;2023-09-12T18:57:09;3.05;;;1.42;;
12770;SDS011;6449;47.666;9.160;2023-09-12T19:02:05;3.15;;;1.70;;
12770;SDS011;6449;47.666;9.160;2023-09-12T19:06:59;3.80;;;1.25;;
12770;SDS011;6449;47.666;9.160;2023-09-12T19:11:53;2.45;;;1.55;;
12770;SDS011;6449;47.666;9.160;2023-09-12T19:16:51;2.83;;;1.75;;
12770;SDS011;6449;47.666;9.160;2023-09-12T19:21:47;2.60;;;1.70;;
12770;SDS011;6449;47.666;9.160;2023-09-12T19:26:42;4.35;;;1.75;;
12770;SDS011;6449;47.666;9.160;2023-09-12T19:31:35;3.10;;;1.70;;
12770;SDS011;6449;47.666;9.160;2023-09-12T19:36:29;2.50;;;1.60;;
12770;SDS011;6449;47.666;9.160;2023-09-12T19:41:24;5.15;;;1.95;;
12770;SDS011;6449;47.666;9.160;2023-09-12T19:46:19;2.83;;;1.73;;
12770;SDS011;6449;47.666;9.160;2023-09-12T19:51:13;2.78;;;1.80;;
12770;SDS011;6449;47.666;9.160;2023-09-12T19:56:06;2.97;;;2.03;;
12770;SDS011;6449;47.666;9.160;2023-09-12T20:01:01;3.90;;;1.98;;
12770;SDS011;6449;47.666;9.160;2023-09-12T20:05:58;3.13;;;1.92;;
12770;SDS011;6449;47.666;9.160;2023-09-12T20:10:51;3.10;;;1.65;;
12770;SDS011;6449;47.666;9.160;2023-09-12T20:15:46;1.85;;;1.75;;
12770;SDS011;6449;47.666;9.160;2023-09-12T20:20:43;4.50;;;2.00;;
12770;SDS011;6449;47.666;9.160;2023-09-12T20:25:38;3.97;;;2.10;;
12770;SDS011;6449;47.666;9.160;2023-09-12T20:30:31;2.75;;;1.90;;
12770;SDS011;6449;47.666;9.160;2023-09-12T20:35:25;3.50;;;1.70;;
12770;SDS011;6449;47.666;9.160;2023-09-12T20:40:20;3.55;;;1.67;;
12770;SDS011;6449;47.666;9.160;2023-09-12T20:45:20;2.75;;;1.83;;
12770;SDS011;6449;47.666;9.160;2023-09-12T20:50:13;2.20;;;1.75;;
12770;SDS011;6449;47.666;9.160;2023-09-12T20:55:10;3.83;;;1.70;;
12770;SDS011;6449;47.666;9.160;2023-09-12T21:00:06;2.65;;;1.70;;
12770;SDS011;6449;47.666;9.160;2023-09-12T21:05:01;3.13;;;1.60;;
12770;SDS011;6449;47.666;9.160;2023-09-12T21:09:55;2.88;;;1.65;;
12770;SDS011;6449;47.666;9.160;2023-09-12T21:14:48;2.47;;;1.70;;
12770;SDS011;6449;47.666;9.160;2023-09-12T21:19:43;1.88;;;1.67;;
12770;SDS011;6449;47.666;9.160;2023-09-12T21:24:36;1.77;;;1.60;;
12770;SDS011;6449;47.666;9.160;2023-09-12T21:29:30;2.20;;;1.77;;
12770;SDS011;6449;47.666;9.160;2023-09-12T21:34:24;2.10;;;1.73;;
12770;SDS011;6449;47.666;9.160;2023-09-12T21:39:18;2.80;;;1.52;;
12770;SDS011;6449;47.666;9.160;2023-09-12T21:44:12;4.13;;;1.88;;
12770;SDS011;6449;47.666;9.160;2023-09-12T21:49:05;1.88;;;1.60;;
12770;SDS011;6449;47.666;9.160;2023-09-12T21:53:59;4.38;;;2.15;;
12770;SDS011;6449;47.666;9.160;2023-09-12T21:58:54;4.50;;;1.95;;
12770;SDS011;6449;47.666;9.160;2023-09-12T22:03:47;5.13;;;2.20;;
12770;SDS011;6449;47.666;9.160;2023-09-12T22:08:41;3.25;;;2.17;;
12770;SDS011;6449;47.666;9.160;2023-09-12T22:13:35;2.03;;;1.83;;
12770;SDS011;6449;47.666;9.160;2023-09-12T22:18:29;3.45;;;2.55;;
12770;SDS011;6449;47.666;9.160;2023-09-12T22:23:23;2.60;;;2.20;;
12770;SDS011;6449;47.666;9.160;2023-09-12T22:28:17;2.50;;;1.95;;
12770;SDS011;6449;47.666;9.160;2023-09-12T22:33:11;19.38;;;12.10;;
12770;SDS011;6449;47.666;9.160;2023-09-12T22:38:05;8.27;;;5.55;;
12770;SDS011;6449;47.666;9.160;2023-09-12T22:42:58;10.30;;;6.80;;
12770;SDS011;6449;47.666;9.160;2023-09-12T22:47:52;14.90;;;8.30;;
12770;SDS011;6449;47.666;9.160;2023-09-12T22:52:45;9.25;;;5.50;;
12770;SDS011;6449;47.666;9.160;2023-09-12T22:57:40;6.35;;;4.30;;
12770;SDS011;6449;47.666;9.160;2023-09-12T23:02:33;4.93;;;3.10;;
12770;SDS011;6449;47.666;9.160;2023-09-12T23:07:28;3.33;;;2.70;;
12770;SDS011;6449;47.666;9.160;2023-09-12T23:12:21;2.65;;;2.13;;
12770;SDS011;6449;47.666;9.160;2023-09-12T23:17:16;2.50;;;2.25;;
12770;SDS011;6449;47.666;9.160;2023-09-12T23:22:09;3.33;;;2.10;;
12770;SDS011;6449;47.666;9.160;2023-09-12T23:27:03;3.95;;;2.50;;
12770;SDS011;6449;47.666;9.160;2023-09-12T23:31:58;5.68;;;2.85;;
12770;SDS011;6449;47.666;9.160;2023-09-12T23:36:53;4.63;;;2.50;;
12770;SDS011;6449;47.666;9.160;2023-09-12T23:41:49;5.10;;;2.67;;
12770;SDS011;6449;47.666;9.160;2023-09-12T23:46:44;21.02;;;10.95;;
12770;SDS011;6449;47.666;9.160;2023-09-12T23:51:38;26.40;;;14.15;;
12770;SDS011;6449;47.666;9.160;2023-09-12T23:56:34;12.18;;;8.57;;
